Latest Weather Observations for Shannon

IDW60801

Issued at 11:23 pm WST Monday 29 November 2021 (issued every 10 minutes, with the page automatically refreshed every 10 minutes)

About weather observations | Map of weather stations | Latest weather observations for WA | Other Formats
Station Details ID: 009968 Name: SHANNON Lat: -34.57 Lon: 116.34 Height: 210.0 m
Data from the previous 72 hours. | See also: Recent months at Shannon
Date/Time
WST
Temp
°C
App
Temp
°C
Dew
Point
°C
Rel
Hum
%
Delta-T
°C
Wind Press
QNH
hPa
Press
MSL
hPa
Rain since
9am
mm
Dir  Spd
km/h
Gust
km/h
Spd
kts
Gust
kts
29/11:00pm 12.4 11.0 9.6 83 1.4 SSE 7 11 4 6 - - 0.2
29/10:30pm 12.4 11.3 10.0 85 1.2 SSE 6 7 3 4 - - 0.2
29/10:00pm 12.5 12.1 9.9 84 1.3 SSE 2 6 1 3 - - 0.2
29/09:30pm 12.4 11.0 9.6 83 1.4 SSE 7 9 4 5 - - 0.2
29/09:00pm 12.8 11.6 9.4 80 1.7 SSE 6 9 3 5 - - 0.2
29/08:30pm 13.1 11.4 9.7 80 1.8 SSE 9 11 5 6 - - 0.2
29/08:00pm 13.1 11.4 9.7 80 1.8 SSE 9 15 5 8 - - 0.2
29/07:30pm 13.6 11.9 9.8 78 2.0 SSE 9 11 5 6 - - 0.2
29/07:00pm 13.7 11.9 9.6 76 2.1 SSE 9 13 5 7 - - 0.2
29/06:30pm 14.1 11.5 9.5 74 2.4 SSE 13 19 7 10 - - 0.2
29/06:00pm 14.4 11.1 9.6 73 2.5 SSE 17 28 9 15 - - 0.2
29/05:30pm 14.6 11.2 10.4 76 2.2 SSE 19 28 10 15 - - 0.2
29/05:00pm 15.3 12.5 11.3 77 2.2 S 17 26 9 14 - - 0.2
29/04:30pm 15.7 12.2 10.9 73 2.6 S 20 30 11 16 - - 0.2
29/04:00pm 16.0 13.2 11.2 73 2.6 S 17 24 9 13 - - 0.2
29/03:30pm 15.4 12.3 11.6 78 2.1 S 19 28 10 15 - - 0.2
29/03:00pm 16.3 13.9 12.8 80 2.0 S 17 22 9 12 - - 0.2
29/02:30pm 15.9 13.0 12.3 79 2.0 S 19 28 10 15 - - 0.2
29/02:00pm 16.3 13.9 12.8 80 2.0 S 17 26 9 14 - - 0.2
29/01:30pm 15.8 14.1 13.5 86 1.3 S 15 24 8 13 - - 0.2
29/01:00pm 15.8 14.8 14.7 93 0.6 S 13 20 7 11 - - 0.2
29/12:30pm 15.8 13.7 14.7 93 0.6 S 19 28 10 15 - - 0.2
29/12:00pm 15.8 13.7 15.3 97 0.3 S 20 28 11 15 - - 0.2
29/11:30am 15.7 14.2 15.2 97 0.3 S 17 24 9 13 - - 0.2
29/11:00am 16.2 14.2 15.6 96 0.4 S 20 33 11 18 - - 0.2
29/10:30am 16.0 13.9 15.2 95 0.5 S 20 28 11 15 - - 0.2
29/10:00am 18.4 17.2 15.1 81 1.9 WSW 15 24 8 13 - - 0.0
29/09:30am 16.9 15.8 15.2 90 1.0 SW 15 20 8 11 - - 0.0
29/09:00am 17.5 15.9 13.8 79 2.1 WSW 15 22 8 12 - - 0.0
29/08:30am 16.8 15.3 14.1 84 1.6 W 15 20 8 11 - - 0.0
29/08:00am 17.3 17.0 14.4 83 1.7 SSW 9 15 5 8 - - 0.0
29/07:30am 15.5 13.9 13.9 90 0.9 WSW 15 20 8 11 - - 0.0
29/07:00am 15.4 14.8 13.6 89 1.0 SSW 9 15 5 8 - - 0.0
29/06:30am 15.1 14.7 13.1 88 1.1 SSW 7 11 4 6 - - 0.0
29/06:00am 14.9 14.6 12.6 86 1.3 SSW 6 7 3 4 - - 0.0
29/05:30am 14.8 14.3 12.7 87 1.2 SSW 7 11 4 6 - - 0.0
29/05:00am 14.7 14.3 12.4 86 1.3 SSW 6 9 3 5 - - 0.0
29/04:30am 14.8 14.3 12.7 87 1.2 S 7 11 4 6 - - 0.0
29/04:00am 14.8 15.6 12.7 87 1.2 CALM 0 4 0 2 - - 0.0
29/03:30am 14.8 14.0 12.8 88 1.1 S 9 13 5 7 - - 0.0
29/03:00am 14.9 14.2 13.3 90 0.9 S 9 13 5 7 - - 0.0
29/02:30am 15.0 14.3 13.2 89 1.0 S 9 11 5 6 - - 0.0
29/02:00am 15.2 14.9 13.2 88 1.1 S 7 9 4 5 - - 0.0
29/01:30am 15.2 14.8 12.9 86 1.3 S 7 11 4 6 - - 0.0
29/01:00am 15.3 14.8 12.8 85 1.4 SSW 7 9 4 5 - - 0.0
29/12:30am 15.4 14.7 13.1 86 1.3 SSW 9 11 5 6 - - 0.0
29/12:00am 15.3 14.5 13.0 86 1.3 SSW 9 13 5 7 - - 0.0
 
Date/Time
WST
Temp
°C
App
Temp
°C
Dew
Point
°C
Rel
Hum
%
Delta-T
°C
Wind Press
QNH
hPa
Press
MSL
hPa
Rain since
9am
mm
Dir  Spd
km/h
Gust
km/h
Spd
kts
Gust
kts
28/11:30pm 15.4 15.0 13.1 86 1.3 SSW 7 11 4 6 - - 0.0
28/11:00pm 15.5 14.4 13.2 86 1.3 S 11 15 6 8 - - 0.0
28/10:30pm 15.6 14.2 13.3 86 1.3 S 13 19 7 10 - - 0.0
28/10:00pm 15.6 14.2 13.3 86 1.3 S 13 22 7 12 - - 0.0
28/09:30pm 15.7 13.5 13.2 85 1.4 S 17 24 9 13 - - 0.0
28/09:00pm 15.8 14.4 13.3 85 1.4 S 13 20 7 11 - - 0.0
28/08:30pm 16.0 14.7 13.7 86 1.3 SSW 13 20 7 11 - - 0.0
28/08:00pm 16.2 15.8 14.2 88 1.1 SSW 9 13 5 7 - - 0.0
28/07:30pm 16.4 14.9 14.2 87 1.3 S 15 20 8 11 - - 0.0
28/07:00pm 16.7 15.6 14.2 85 1.4 SSW 13 19 7 10 - - 0.0
28/06:30pm 17.8 16.3 14.3 80 2.0 SSW 15 20 8 11 - - 0.0
28/06:00pm 18.8 17.4 14.5 76 2.5 S 15 22 8 12 - - 0.0
28/05:30pm 19.6 17.5 14.6 73 2.9 SSW 19 24 10 13 - - 0.0
28/05:00pm 21.0 19.7 15.8 72 3.1 SSW 17 24 9 13 - - 0.0
28/04:30pm 21.2 19.3 15.7 71 3.3 SSW 20 28 11 15 - - 0.0
28/04:00pm 21.2 19.6 16.0 72 3.1 SSW 19 28 10 15 - - 0.0
28/03:30pm 21.1 19.8 16.7 76 2.7 SW 19 28 10 15 - - 0.0
28/03:00pm 20.5 19.2 16.7 79 2.3 SSW 19 28 10 15 - - 0.0
28/02:30pm 21.8 19.8 16.5 72 3.2 SW 22 33 12 18 - - 0.0
28/02:00pm 23.1 20.7 16.4 66 4.1 SW 24 35 13 19 - - 0.0
28/01:30pm 25.1 24.0 17.8 64 4.6 SW 20 28 11 15 - - 0.0
28/01:00pm 25.3 24.0 16.7 59 5.4 SW 19 24 10 13 - - 0.0
28/12:30pm 25.8 25.1 18.2 63 4.8 SW 19 24 10 13 - - 0.0
28/12:00pm 25.8 25.8 19.0 66 4.4 SW 17 26 9 14 - - 0.0
28/11:30am 26.2 25.9 17.3 58 5.6 S 15 20 8 11 - - 0.0
28/11:00am 27.4 27.4 17.3 54 6.4 W 13 24 7 13 - - 0.0
28/10:30am 26.7 24.8 15.1 49 7.1 SW 19 26 10 14 - - 0.0
28/10:00am 26.7 25.9 16.0 52 6.6 SW 15 24 8 13 - - 0.0
28/09:30am 26.2 24.8 14.6 48 7.0 SW 15 24 8 13 - - 0.0
28/09:00am 24.9 24.9 15.2 54 5.9 WSW 9 19 5 10 - - 0.0
28/08:30am 23.7 22.8 13.8 53 5.8 WSW 11 17 6 9 - - 0.0
28/08:00am 22.5 21.9 13.6 57 5.2 WSW 9 13 5 7 - - 0.0
28/07:30am 21.4 20.5 12.5 57 5.1 W 9 13 5 7 - - 0.0
28/07:00am 20.1 19.2 13.6 66 3.8 NNW 11 15 6 8 - - 0.0
28/06:30am 19.8 19.4 14.0 69 3.4 N 9 15 5 8 - - 0.0
28/06:00am 17.6 16.2 13.3 76 2.4 NNE 13 15 7 8 - - 0.0
28/05:30am 16.4 14.8 12.9 80 2.0 NNE 13 17 7 9 - - 0.0
28/05:00am 16.4 14.4 12.8 79 2.0 NE 15 19 8 10 - - 0.0
28/04:30am 16.8 14.8 12.7 77 2.3 NE 15 20 8 11 - - 0.0
28/04:00am 17.1 15.1 12.8 76 2.4 NNE 15 19 8 10 - - 0.0
28/03:30am 17.4 15.5 13.1 76 2.4 NE 15 20 8 11 - - 0.0
28/03:00am 17.5 15.6 13.0 75 2.5 NE 15 22 8 12 - - 0.0
28/02:30am 18.5 16.2 13.1 71 3.1 NE 17 24 9 13 - - 0.0
28/02:00am 19.1 16.3 13.3 69 3.3 NE 20 28 11 15 - - 0.0
28/01:30am 19.1 17.3 14.4 74 2.7 NE 17 26 9 14 - - 0.0
28/01:00am 19.2 17.6 15.1 77 2.4 NE 17 26 9 14 - - 0.0
28/12:30am 19.2 18.1 15.3 78 2.3 NE 15 24 8 13 - - 0.0
28/12:00am 19.9 19.1 16.2 79 2.2 NE 15 22 8 12 - - 0.0
 
Date/Time
WST
Temp
°C
App
Temp
°C
Dew
Point
°C
Rel
Hum
%
Delta-T
°C
Wind Press
QNH
hPa
Press
MSL
hPa
Rain since
9am
mm
Dir  Spd
km/h
Gust
km/h
Spd
kts
Gust
kts
27/11:30pm 19.6 19.2 17.2 86 1.5 NE 15 19 8 10 - - 0.0
27/11:00pm 19.1 19.2 17.4 90 1.0 NE 13 17 7 9 - - 0.0
27/10:30pm 19.4 20.4 17.7 90 1.1 NE 9 13 5 7 - - 0.0
27/10:00pm 19.4 20.5 17.2 87 1.3 SSE 7 9 4 5 - - 0.0
27/09:30pm 21.1 22.3 16.9 77 2.6 SSE 6 9 3 5 - - 0.0
27/09:00pm 21.0 22.2 17.4 80 2.2 SSE 7 11 4 6 - - 0.0
27/08:30pm 20.6 22.2 17.8 84 1.7 SSE 6 9 3 5 - - 0.0
27/08:00pm 21.2 22.3 16.6 75 2.8 SSE 6 7 3 4 - - 0.0
27/07:30pm 23.3 23.6 16.1 64 4.4 SSE 9 13 5 7 - - 0.0
27/07:00pm 24.4 24.4 15.3 57 5.5 SSE 9 13 5 7 - - 0.0
27/06:30pm 26.5 26.5 15.2 49 6.9 SSE 9 15 5 8 - - 0.0
27/06:00pm 27.4 26.6 15.1 47 7.5 SSE 13 19 7 10 - - 0.0
27/05:30pm 28.2 27.3 15.8 47 7.7 S 15 19 8 10 - - 0.0
27/05:00pm 28.7 26.8 15.2 43 8.3 S 19 24 10 13 - - 0.0
27/04:30pm 29.7 28.1 15.0 40 9.1 S 17 26 9 14 - - 0.0
27/04:00pm 32.1 30.1 7.0 21 13.8 SSW 7 15 4 8 - - 0.0
27/03:30pm 31.4 27.7 6.5 21 13.5 N 15 22 8 12 - - 0.0
27/03:00pm 31.1 28.4 7.5 23 13.0 SE 11 20 6 11 - - 0.0
27/02:30pm 31.3 29.7 10.1 27 12.2 SSE 9 20 5 11 - - 0.0
27/02:00pm 31.0 30.0 10.9 29 11.7 SSW 7 17 4 9 - - 0.0
27/01:30pm 29.9 29.2 11.9 33 10.6 SSW 7 13 4 7 - - 0.0
27/01:00pm 29.6 28.9 14.2 39 9.4 SSW 11 15 6 8 - - 0.0
27/12:30pm 29.0 28.7 13.2 37 9.4 WSW 7 11 4 6 - - 0.0
27/12:00pm 27.9 27.6 15.5 46 7.6 NE 11 17 6 9 - - 0.0
27/11:30am 27.1 26.5 14.5 46 7.6 ENE 11 17 6 9 - - 0.0
27/11:00am 25.6 25.5 15.0 52 6.4 NE 9 15 5 8 - - 0.0
27/10:30am 25.2 24.9 15.5 55 5.9 NNE 11 19 6 10 - - 0.0
27/10:00am 23.9 23.5 16.2 62 4.7 NNE 13 17 7 9 - - 0.0
27/09:30am 21.9 19.1 12.7 56 5.3 ENE 19 24 10 13 - - 0.0
27/09:00am 21.7 20.0 13.6 60 4.7 NNE 15 24 8 13 - - 0.0
27/08:30am 21.4 19.5 14.1 63 4.3 NE 17 28 9 15 - - 0.0
27/08:00am 20.1 18.0 13.6 66 3.8 ENE 17 24 9 13 - - 0.0
27/07:30am 18.3 16.3 14.0 76 2.5 NE 17 26 9 14 - - 0.0
27/07:00am 16.1 14.0 13.6 85 1.4 NE 17 24 9 13 - - 0.0
27/06:30am 15.0 12.6 13.7 92 0.7 NE 19 24 10 13 - - 0.0
27/06:00am 13.7 10.9 13.1 96 0.3 NE 20 30 11 16 - - 0.0
27/05:30am 13.2 10.2 12.7 97 0.3 NE 20 26 11 14 - - 0.0
27/05:00am 13.0 10.0 12.7 98 0.2 NE 20 28 11 15 - - 0.0
27/04:30am 13.1 10.4 12.8 98 0.2 NE 19 24 10 13 - - 0.0
27/04:00am 13.1 10.7 12.8 98 0.2 NE 17 24 9 13 - - 0.0
27/03:30am 13.2 10.9 12.9 98 0.2 NE 17 24 9 13 - - 0.0
27/03:00am 13.2 11.2 12.7 97 0.3 NE 15 20 8 11 - - 0.0
27/02:30am 13.4 11.4 12.8 96 0.3 NE 15 20 8 11 - - 0.0
27/02:00am 13.6 11.6 12.8 95 0.4 NE 15 20 8 11 - - 0.0
27/01:30am 13.8 11.9 12.9 94 0.5 NE 15 22 8 12 - - 0.0
27/01:00am 14.4 12.2 13.3 93 0.6 NE 17 24 9 13 - - 0.0
27/12:30am 14.5 12.3 13.4 93 0.6 NE 17 26 9 14 - - 0.0
27/12:00am 14.9 13.6 13.6 92 0.7 NE 13 20 7 11 - - 0.0
 
Date/Time
WST
Temp
°C
App
Temp
°C
Dew
Point
°C
Rel
Hum
%
Delta-T
°C
Wind Press
QNH
hPa
Press
MSL
hPa
Rain since
9am
mm
Dir  Spd
km/h
Gust
km/h
Spd
kts
Gust
kts
26/11:30pm 15.3 14.0 13.8 91 0.9 ENE 13 17 7 9 - - 0.0

Other formats

Comma delimited format used in spreadsheet applications
http://www.bom.gov.au/fwo/IDW60801/IDW60801.95617.axf

JavaScript Object Notation format (JSON) in row-major order
http://www.bom.gov.au/fwo/IDW60801/IDW60801.95617.json

Data quality

Most of these data are generated automatically and are frequently updated. Quality checks on data are not normally performed. It is possible for incorrect values to appear. Refer to information at About Latest Weather Observations and please check the disclaimer before using these data.